createdAt,value
2018-01-26T00:00:31.766Z,0
2018-01-26T00:01:31.743Z,0
2018-01-26T00:02:31.769Z,0
2018-01-26T00:03:31.445Z,0
2018-01-26T00:04:31.423Z,0
2018-01-26T00:05:31.638Z,0
2018-01-26T00:06:31.369Z,0
2018-01-26T00:07:31.595Z,0
2018-01-26T00:08:31.321Z,0
2018-01-26T00:09:31.641Z,0
2018-01-26T00:10:31.508Z,0
2018-01-26T00:11:31.487Z,0
2018-01-26T00:12:31.222Z,0
2018-01-26T00:13:31.442Z,0
2018-01-26T00:14:31.409Z,0
2018-01-26T00:15:31.143Z,0
2018-01-26T00:16:31.373Z,0
2018-01-26T00:17:31.084Z,0
2018-01-26T00:18:31.067Z,0
2018-01-26T00:19:31.034Z,0
2018-01-26T00:20:31.259Z,0
2018-01-26T00:21:31.230Z,0
2018-01-26T00:22:31.212Z,0
2018-01-26T00:23:31.184Z,0
2018-01-26T00:24:31.153Z,0
2018-01-26T00:25:31.123Z,0
2018-01-26T00:26:31.153Z,0
2018-01-26T00:27:31.077Z,0
2018-01-26T00:28:31.047Z,0
2018-01-26T00:29:30.776Z,0
2018-01-26T00:30:30.998Z,0
2018-01-26T00:31:30.731Z,0
2018-01-26T00:32:30.952Z,0
2018-01-26T00:33:30.926Z,0
2018-01-26T00:34:30.898Z,0
2018-01-26T00:35:30.620Z,0
2018-01-26T00:36:30.601Z,0
2018-01-26T00:37:30.826Z,0
2018-01-26T00:38:30.305Z,0
2018-01-26T00:39:30.780Z,0
2018-01-26T00:40:30.757Z,0
2018-01-26T00:41:30.481Z,0
2018-01-26T00:42:30.448Z,0
2018-01-26T00:43:30.720Z,0
2018-01-26T00:44:30.643Z,0
2018-01-26T00:45:30.617Z,0
2018-01-26T00:46:30.347Z,0
2018-01-26T00:47:30.315Z,0
2018-01-26T00:48:30.539Z,0
2018-01-26T00:49:30.261Z,0
2018-01-26T00:50:30.242Z,0
2018-01-26T00:51:30.489Z,0
2018-01-26T00:52:30.188Z,0
2018-01-26T00:53:30.414Z,0
2018-01-26T00:54:29.899Z,0
2018-01-26T00:55:30.363Z,0
2018-01-26T00:56:30.333Z,0
2018-01-26T00:57:30.302Z,0
2018-01-26T00:58:30.279Z,0
2018-01-26T00:59:30.254Z,0
2018-01-26T01:00:30.228Z,0
2018-01-26T01:01:30.208Z,0
2018-01-26T01:02:29.933Z,0
2018-01-26T01:03:30.154Z,0
2018-01-26T01:04:29.881Z,0
2018-01-26T01:05:29.854Z,0
2018-01-26T01:06:29.834Z,0
2018-01-26T01:07:30.049Z,0
2018-01-26T01:08:30.027Z,0
2018-01-26T01:09:29.506Z,0
2018-01-26T01:10:29.977Z,0
2018-01-26T01:11:29.958Z,0
2018-01-26T01:12:29.923Z,0
2018-01-26T01:13:29.898Z,0
2018-01-26T01:14:29.875Z,0
2018-01-26T01:15:29.603Z,0
2018-01-26T01:16:29.327Z,0
2018-01-26T01:17:29.798Z,0
2018-01-26T01:18:29.767Z,0
2018-01-26T01:19:29.253Z,0
2018-01-26T01:20:29.471Z,0
2018-01-26T01:21:29.198Z,0
2018-01-26T01:22:29.671Z,0
2018-01-26T01:23:29.395Z,0
2018-01-26T01:24:29.649Z,0
2018-01-26T01:25:29.098Z,0
2018-01-26T01:26:29.361Z,0
2018-01-26T01:27:29.292Z,0
2018-01-26T01:28:29.511Z,0
2018-01-26T01:29:29.484Z,0
2018-01-26T01:30:29.453Z,0
2018-01-26T01:31:29.439Z,0
2018-01-26T01:32:29.409Z,0
2018-01-26T01:33:29.382Z,0
2018-01-26T01:34:29.353Z,0
2018-01-26T01:35:29.089Z,0
2018-01-26T01:36:29.308Z,0
2018-01-26T01:37:29.283Z,0
2018-01-26T01:38:29.255Z,0
2018-01-26T01:39:28.985Z,0
2018-01-26T01:40:29.201Z,0
2018-01-26T01:41:29.178Z,0
2018-01-26T01:42:29.152Z,0
2018-01-26T01:43:29.128Z,0
2018-01-26T01:44:28.857Z,0
2018-01-26T01:45:29.078Z,0
2018-01-26T01:46:28.800Z,0
2018-01-26T01:47:28.777Z,0
2018-01-26T01:48:29.042Z,0
2018-01-26T01:49:28.968Z,0
2018-01-26T01:50:28.949Z,0
2018-01-26T01:51:28.972Z,0
2018-01-26T01:52:28.908Z,0
2018-01-26T01:53:28.873Z,0
2018-01-26T01:54:28.595Z,0
2018-01-26T01:55:28.824Z,0
2018-01-26T01:56:28.789Z,0
2018-01-26T01:57:28.763Z,0
2018-01-26T01:58:28.743Z,0
2018-01-26T01:59:28.715Z,0
2018-01-26T02:00:28.440Z,0
2018-01-26T02:01:28.664Z,0
2018-01-26T02:02:28.393Z,0
2018-01-26T02:03:28.608Z,0
2018-01-26T02:04:28.584Z,0
2018-01-26T02:05:28.608Z,0
2018-01-26T02:06:28.533Z,0
2018-01-26T02:07:28.508Z,0
2018-01-26T02:08:28.477Z,0
2018-01-26T02:09:28.458Z,0
2018-01-26T02:10:28.180Z,0
2018-01-26T02:11:28.403Z,0
2018-01-26T02:12:28.378Z,0
2018-01-26T02:13:28.360Z,0
2018-01-26T02:14:28.331Z,0
2018-01-26T02:15:27.809Z,0
2018-01-26T02:16:28.034Z,0
2018-01-26T02:17:28.253Z,0
2018-01-26T02:18:27.980Z,0
2018-01-26T02:19:28.204Z,0
2018-01-26T02:20:28.173Z,0
2018-01-26T02:21:28.148Z,0
2018-01-26T02:22:28.132Z,0
2018-01-26T02:23:28.096Z,0
2018-01-26T02:24:27.579Z,0
2018-01-26T02:25:28.045Z,0
2018-01-26T02:26:28.020Z,0
2018-01-26T02:27:27.746Z,0
2018-01-26T02:28:27.722Z,0
2018-01-26T02:29:27.702Z,0
2018-01-26T02:30:27.920Z,0
2018-01-26T02:31:27.650Z,0
2018-01-26T02:32:27.874Z,0
2018-01-26T02:33:27.840Z,0
2018-01-26T02:34:27.327Z,0
2018-01-26T02:35:27.547Z,0
2018-01-26T02:36:27.523Z,0
2018-01-26T02:37:27.493Z,0
2018-01-26T02:38:27.725Z,0
2018-01-26T02:39:27.689Z,0
2018-01-26T02:40:27.666Z,0
2018-01-26T02:41:27.391Z,0
2018-01-26T02:42:27.608Z,0
2018-01-26T02:43:27.599Z,0
2018-01-26T02:44:27.563Z,0
2018-01-26T02:45:27.292Z,0
2018-01-26T02:46:27.275Z,0
2018-01-26T02:47:27.245Z,0
2018-01-26T02:48:27.489Z,0
2018-01-26T02:49:27.480Z,0
2018-01-26T02:50:27.412Z,0
2018-01-26T02:51:27.391Z,0
2018-01-26T02:52:27.113Z,0
2018-01-26T02:53:27.333Z,0
2018-01-26T02:54:27.082Z,0
2018-01-26T02:55:27.340Z,0
2018-01-26T02:56:27.252Z,0
2018-01-26T02:57:27.281Z,0
2018-01-26T02:58:27.201Z,0
2018-01-26T02:59:26.930Z,0
2018-01-26T03:00:27.313Z,0
2018-01-26T03:01:26.627Z,0
2018-01-26T03:02:27.195Z,0
2018-01-26T03:03:27.069Z,0
2018-01-26T03:04:27.052Z,0
2018-01-26T03:05:26.770Z,0
2018-01-26T03:06:27.007Z,0
2018-01-26T03:07:26.963Z,0
2018-01-26T03:08:26.936Z,0
2018-01-26T03:09:26.674Z,0
2018-01-26T03:10:26.886Z,0
2018-01-26T03:11:26.620Z,0
2018-01-26T03:12:26.833Z,0
2018-01-26T03:13:26.816Z,0
2018-01-26T03:14:26.791Z,0
2018-01-26T03:15:26.512Z,0
2018-01-26T03:16:26.491Z,0
2018-01-26T03:17:26.708Z,0
2018-01-26T03:18:26.683Z,0
2018-01-26T03:19:26.662Z,0
2018-01-26T03:20:26.627Z,0
2018-01-26T03:21:26.608Z,0
2018-01-26T03:22:26.334Z,0
2018-01-26T03:23:26.548Z,0
2018-01-26T03:24:26.527Z,0
2018-01-26T03:25:26.255Z,0
2018-01-26T03:26:26.474Z,0
2018-01-26T03:27:26.203Z,0
2018-01-26T03:28:26.181Z,0
2018-01-26T03:29:26.421Z,0
2018-01-26T03:30:26.381Z,0
2018-01-26T03:31:26.355Z,0
2018-01-26T03:32:26.075Z,0
2018-01-26T03:33:26.302Z,0
2018-01-26T03:34:26.274Z,0
2018-01-26T03:35:26.242Z,0
2018-01-26T03:36:26.216Z,0
2018-01-26T03:37:26.192Z,0
2018-01-26T03:38:26.181Z,0
2018-01-26T03:39:26.142Z,0
2018-01-26T03:40:26.117Z,0
2018-01-26T03:41:26.093Z,0
2018-01-26T03:42:26.059Z,0
2018-01-26T03:43:25.795Z,0
2018-01-26T03:44:26.013Z,0
2018-01-26T03:45:25.982Z,0
2018-01-26T03:46:25.961Z,0
2018-01-26T03:47:25.690Z,0
2018-01-26T03:48:26.003Z,0
2018-01-26T03:49:25.884Z,0
2018-01-26T03:50:25.852Z,0
2018-01-26T03:51:25.831Z,0
2018-01-26T03:52:25.802Z,0
2018-01-26T03:53:25.781Z,0
2018-01-26T03:54:25.753Z,0
2018-01-26T03:55:25.725Z,0
2018-01-26T03:56:25.704Z,0
2018-01-26T03:57:25.186Z,0
2018-01-26T03:58:25.664Z,0
2018-01-26T03:59:25.621Z,0
2018-01-26T04:00:25.601Z,0
2018-01-26T04:01:25.085Z,0
2018-01-26T04:02:25.549Z,0
2018-01-26T04:03:25.521Z,0
2018-01-26T04:04:25.495Z,0
2018-01-26T04:05:25.470Z,0
2018-01-26T04:06:25.448Z,0
2018-01-26T04:07:25.421Z,0
2018-01-26T04:08:25.396Z,0
2018-01-26T04:09:25.363Z,0
2018-01-26T04:10:25.336Z,0
2018-01-26T04:11:25.321Z,0
2018-01-26T04:12:25.045Z,0
2018-01-26T04:13:25.261Z,0
2018-01-26T04:14:25.236Z,0
2018-01-26T04:15:24.961Z,0
2018-01-26T04:16:25.184Z,0
2018-01-26T04:17:24.916Z,0
2018-01-26T04:18:25.133Z,0
2018-01-26T04:19:25.109Z,0
2018-01-26T04:20:25.082Z,0
2018-01-26T04:21:24.805Z,0
2018-01-26T04:22:25.032Z,0
2018-01-26T04:23:25.012Z,0
2018-01-26T04:24:24.485Z,0
2018-01-26T04:25:24.956Z,0
2018-01-26T04:26:24.679Z,0
2018-01-26T04:27:24.947Z,0
2018-01-26T04:28:24.633Z,0
2018-01-26T04:29:24.851Z,0
2018-01-26T04:30:24.831Z,0
2018-01-26T04:31:24.553Z,0
2018-01-26T04:32:24.526Z,0
2018-01-26T04:33:24.749Z,0
2018-01-26T04:34:24.723Z,0
2018-01-26T04:35:24.451Z,0
2018-01-26T04:36:24.670Z,0
2018-01-26T04:37:24.399Z,0
2018-01-26T04:38:24.427Z,0
2018-01-26T04:39:24.352Z,0
2018-01-26T04:40:24.326Z,0
2018-01-26T04:41:24.542Z,0
2018-01-26T04:42:24.514Z,0
2018-01-26T04:43:24.491Z,0
2018-01-26T04:44:24.460Z,0
2018-01-26T04:45:24.193Z,0
2018-01-26T04:46:24.417Z,0
2018-01-26T04:47:24.142Z,0
2018-01-26T04:48:24.115Z,0
2018-01-26T04:49:24.335Z,0
2018-01-26T04:50:24.070Z,0
2018-01-26T04:51:24.284Z,0
2018-01-26T04:52:24.255Z,0
2018-01-26T04:53:24.237Z,0
2018-01-26T04:54:23.956Z,0
2018-01-26T04:55:24.179Z,0
2018-01-26T04:56:24.152Z,0
2018-01-26T04:57:24.128Z,0
2018-01-26T04:58:23.611Z,0
2018-01-26T04:59:23.831Z,0
2018-01-26T05:00:23.901Z,0
2018-01-26T05:01:24.023Z,0
2018-01-26T05:02:23.805Z,0
2018-01-26T05:03:23.726Z,0
2018-01-26T05:04:23.950Z,0
2018-01-26T05:05:23.923Z,0
2018-01-26T05:06:23.894Z,0
2018-01-26T05:07:23.376Z,0
2018-01-26T05:08:23.839Z,0
2018-01-26T05:09:23.818Z,0
2018-01-26T05:10:23.795Z,0
2018-01-26T05:11:23.789Z,0
2018-01-26T05:12:23.747Z,0
2018-01-26T05:13:23.713Z,0
2018-01-26T05:14:23.447Z,0
2018-01-26T05:15:23.173Z,0
2018-01-26T05:16:23.639Z,0
2018-01-26T05:17:23.610Z,0
2018-01-26T05:18:23.586Z,0
2018-01-26T05:19:23.314Z,0
2018-01-26T05:20:23.040Z,0
2018-01-26T05:21:23.262Z,0
2018-01-26T05:22:23.236Z,0
2018-01-26T05:23:23.452Z,0
2018-01-26T05:24:23.182Z,0
2018-01-26T05:25:23.159Z,0
2018-01-26T05:26:22.886Z,0
2018-01-26T05:27:23.107Z,0
2018-01-26T05:28:23.078Z,0
2018-01-26T05:29:23.052Z,0
2018-01-26T05:30:23.028Z,0
2018-01-26T05:31:23.000Z,0
2018-01-26T05:32:23.221Z,0
2018-01-26T05:33:23.192Z,0
2018-01-26T05:34:23.175Z,0
2018-01-26T05:35:23.150Z,0
2018-01-26T05:36:22.633Z,0
2018-01-26T05:37:23.093Z,0
2018-01-26T05:38:23.202Z,0
2018-01-26T05:39:23.041Z,0
2018-01-26T05:40:23.016Z,0
2018-01-26T05:41:22.743Z,0
2018-01-26T05:42:22.961Z,0
2018-01-26T05:43:22.696Z,0
2018-01-26T05:44:22.667Z,0
2018-01-26T05:45:22.684Z,0
2018-01-26T05:46:22.861Z,0
2018-01-26T05:47:22.591Z,0
2018-01-26T05:48:22.557Z,0
2018-01-26T05:49:22.782Z,0
2018-01-26T05:50:22.755Z,0
2018-01-26T05:51:22.487Z,0
2018-01-26T05:52:22.707Z,0
2018-01-26T05:53:22.683Z,0
2018-01-26T05:54:22.658Z,0
2018-01-26T05:55:22.137Z,0
2018-01-26T05:56:22.356Z,0
2018-01-26T05:57:22.996Z,0
2018-01-26T05:58:22.309Z,0
2018-01-26T05:59:22.414Z,0
2018-01-26T06:00:22.501Z,0
2018-01-26T06:01:22.231Z,0
2018-01-26T06:02:22.204Z,0
2018-01-26T06:03:22.179Z,0
2018-01-26T06:04:22.155Z,0
2018-01-26T06:05:22.370Z,0
2018-01-26T06:06:22.098Z,0
2018-01-26T06:07:22.070Z,0
2018-01-26T06:08:21.805Z,0
2018-01-26T06:09:22.268Z,0
2018-01-26T06:10:22.247Z,0
2018-01-26T06:11:21.721Z,0
2018-01-26T06:12:21.958Z,0
2018-01-26T06:13:22.161Z,0
2018-01-26T06:14:21.890Z,0
2018-01-26T06:15:22.113Z,0
2018-01-26T06:16:22.091Z,0
2018-01-26T06:17:21.814Z,0
2018-01-26T06:18:22.036Z,0
2018-01-26T06:19:22.027Z,0
2018-01-26T06:20:21.980Z,0
2018-01-26T06:21:21.950Z,0
2018-01-26T06:22:21.934Z,0
2018-01-26T06:23:21.906Z,0
2018-01-26T06:24:21.884Z,0
2018-01-26T06:25:21.602Z,0
2018-01-26T06:26:21.576Z,0
2018-01-26T06:27:21.828Z,0
2018-01-26T06:28:21.778Z,0
2018-01-26T06:29:21.751Z,0
2018-01-26T06:30:21.725Z,0
2018-01-26T06:31:21.698Z,0
2018-01-26T06:32:21.506Z,0
2018-01-26T06:33:21.655Z,0
2018-01-26T06:34:22.208Z,0
2018-01-26T06:35:21.954Z,0
2018-01-26T06:36:22.515Z,0
2018-01-26T06:37:22.449Z,0
2018-01-26T06:38:21.515Z,0
2018-01-26T06:39:21.491Z,0
2018-01-26T06:40:21.465Z,0
2018-01-26T06:41:21.195Z,0
2018-01-26T06:42:21.413Z,0
2018-01-26T06:43:21.385Z,4
2018-01-26T06:44:20.865Z,4
2018-01-26T06:45:21.087Z,4
2018-01-26T06:46:21.412Z,4
2018-01-26T06:47:21.283Z,4
2018-01-26T06:48:20.761Z,4
2018-01-26T06:49:21.232Z,4
2018-01-26T06:50:20.962Z,8
2018-01-26T06:51:21.179Z,4
2018-01-26T06:52:21.160Z,8
2018-01-26T06:53:20.879Z,8
2018-01-26T06:54:21.095Z,12
2018-01-26T06:55:21.077Z,12
2018-01-26T06:56:21.050Z,16
2018-01-26T06:57:21.027Z,20
2018-01-26T06:58:20.749Z,24
2018-01-26T06:59:20.967Z,24
2018-01-26T07:00:20.947Z,32
2018-01-26T07:01:21.525Z,36
2018-01-26T07:02:20.406Z,36
2018-01-26T07:03:20.620Z,44
2018-01-26T07:04:20.977Z,52
2018-01-26T07:05:20.892Z,56
2018-01-26T07:06:20.811Z,68
2018-01-26T07:07:20.276Z,72
2018-01-26T07:08:20.493Z,84
2018-01-26T07:09:20.427Z,96
2018-01-26T07:10:20.205Z,104
2018-01-26T07:11:20.413Z,120
2018-01-26T07:12:20.528Z,132
2018-01-26T07:13:20.612Z,144
2018-01-26T07:14:20.092Z,156
2018-01-26T07:15:20.058Z,172
2018-01-26T07:16:20.652Z,188
2018-01-26T07:17:20.472Z,200
2018-01-26T07:18:20.416Z,216
2018-01-26T07:19:20.884Z,232
2018-01-26T07:20:21.189Z,244
2018-01-26T07:21:21.877Z,260
2018-01-26T07:22:21.842Z,276
2018-01-26T07:23:21.974Z,284
2018-01-26T07:24:20.592Z,300
2018-01-26T07:25:20.415Z,308
2018-01-26T07:26:20.077Z,320
2018-01-26T07:27:20.093Z,328
2018-01-26T07:28:20.360Z,340
2018-01-26T07:29:20.406Z,344
2018-01-26T07:30:21.397Z,356
2018-01-26T07:31:20.307Z,372
2018-01-26T07:32:20.279Z,392
2018-01-26T07:33:21.545Z,416
2018-01-26T07:34:22.244Z,448
2018-01-26T07:35:22.229Z,476
2018-01-26T07:36:21.785Z,496
2018-01-26T07:37:22.630Z,516
2018-01-26T07:38:19.917Z,540
2018-01-26T07:39:20.679Z,576
2018-01-26T07:40:21.381Z,624
2018-01-26T07:41:19.883Z,680
2018-01-26T07:42:19.753Z,744
2018-01-26T07:43:20.110Z,800
2018-01-26T07:44:22.406Z,840
2018-01-26T07:45:20.996Z,884
2018-01-26T07:46:19.768Z,928
2018-01-26T07:47:20.019Z,988
2018-01-26T07:48:23.105Z,1064
2018-01-26T07:49:19.741Z,1132
2018-01-26T07:50:20.227Z,1200
2018-01-26T07:51:19.407Z,1256
2018-01-26T07:52:19.787Z,1316
2018-01-26T07:53:19.568Z,1400
2018-01-26T07:54:20.240Z,1500
2018-01-26T07:55:19.385Z,1596
2018-01-26T07:56:21.455Z,1684
2018-01-26T07:57:19.223Z,1752
2018-01-26T07:58:19.720Z,1812
2018-01-26T07:59:20.626Z,1856
2018-01-26T08:00:23.435Z,1920
2018-01-26T08:01:19.253Z,2004
2018-01-26T08:02:19.379Z,2104
2018-01-26T08:03:19.067Z,2232
2018-01-26T08:04:22.689Z,2372
2018-01-26T08:05:22.371Z,2496
2018-01-26T08:06:19.234Z,2600
2018-01-26T08:07:18.957Z,2720
2018-01-26T08:08:19.181Z,2852
2018-01-26T08:09:19.278Z,3012
2018-01-26T08:10:19.227Z,3188
2018-01-26T08:11:19.270Z,3372
2018-01-26T08:12:19.295Z,3528
2018-01-26T08:13:19.054Z,3588
2018-01-26T08:14:19.056Z,3512
2018-01-26T08:15:20.028Z,3296
2018-01-26T08:16:19.043Z,3016
2018-01-26T08:17:19.002Z,2732
2018-01-26T08:18:20.532Z,2540
2018-01-26T08:19:19.179Z,2524
2018-01-26T08:20:19.099Z,2580
2018-01-26T08:21:20.430Z,2576
2018-01-26T08:22:18.979Z,2608
2018-01-26T08:23:18.650Z,2704
2018-01-26T08:24:20.598Z,2764
2018-01-26T08:25:18.746Z,2816
2018-01-26T08:26:19.065Z,2916
2018-01-26T08:27:19.168Z,2996
2018-01-26T08:28:19.606Z,3044
2018-01-26T08:29:18.491Z,3108
2018-01-26T08:30:18.619Z,3208
2018-01-26T08:31:20.485Z,3304
2018-01-26T08:32:19.439Z,3352
2018-01-26T08:33:18.547Z,3400
2018-01-26T08:34:18.949Z,3484
2018-01-26T08:35:19.734Z,3676
2018-01-26T08:36:17.976Z,3968
2018-01-26T08:37:18.572Z,4372
2018-01-26T08:38:18.474Z,4796
2018-01-26T08:39:18.649Z,5188
2018-01-26T08:40:18.017Z,5536
2018-01-26T08:41:18.156Z,5896
2018-01-26T08:42:17.730Z,6272
2018-01-26T08:43:19.004Z,6596
2018-01-26T08:44:18.314Z,6772
2018-01-26T08:45:18.085Z,6788
2018-01-26T08:46:18.217Z,6692
2018-01-26T08:47:18.194Z,6576
2018-01-26T08:48:18.237Z,6448
2018-01-26T08:49:18.698Z,6356
2018-01-26T08:50:18.379Z,6376
2018-01-26T08:51:20.399Z,6576
2018-01-26T08:52:20.423Z,6916
2018-01-26T08:53:18.820Z,7312
2018-01-26T08:54:19.590Z,7944
2018-01-26T08:55:18.852Z,8644
2018-01-26T08:56:19.150Z,9408
2018-01-26T08:57:19.361Z,9772
2018-01-26T08:58:18.478Z,9840
2018-01-26T08:59:19.872Z,9792
2018-01-26T09:00:18.432Z,9376
2018-01-26T09:01:17.780Z,8768
2018-01-26T09:02:17.581Z,8224
2018-01-26T09:03:17.557Z,7844
2018-01-26T09:04:17.812Z,7672
2018-01-26T09:05:17.762Z,7600
2018-01-26T09:06:17.560Z,7516
2018-01-26T09:07:17.823Z,7408
2018-01-26T09:08:17.438Z,7296
2018-01-26T09:09:17.409Z,7196
2018-01-26T09:10:17.632Z,7120
2018-01-26T09:11:17.365Z,7132
2018-01-26T09:12:17.580Z,7272
2018-01-26T09:13:17.311Z,7540
2018-01-26T09:14:17.537Z,7848
2018-01-26T09:15:17.269Z,8048
2018-01-26T09:16:17.492Z,8080
2018-01-26T09:17:17.517Z,8092
2018-01-26T09:18:17.266Z,8128
2018-01-26T09:19:17.170Z,8156
2018-01-26T09:20:17.391Z,8228
2018-01-26T09:21:17.377Z,8388
2018-01-26T09:22:17.343Z,8596
2018-01-26T09:23:17.335Z,8816
2018-01-26T09:24:17.306Z,8984
2018-01-26T09:25:17.277Z,9120
2018-01-26T09:26:17.003Z,9308
2018-01-26T09:27:17.223Z,9544
2018-01-26T09:28:16.713Z,9764
2018-01-26T09:29:16.689Z,9932
2018-01-26T09:30:16.911Z,10000
2018-01-26T09:31:16.913Z,10024
2018-01-26T09:32:17.118Z,10100
2018-01-26T09:33:17.086Z,10300
2018-01-26T09:34:17.065Z,10512
2018-01-26T09:35:16.791Z,10716
2018-01-26T09:36:17.020Z,10848
2018-01-26T09:37:16.495Z,10720
2018-01-26T09:38:16.477Z,10312
2018-01-26T09:39:16.702Z,9824
2018-01-26T09:40:16.926Z,9604
2018-01-26T09:41:16.652Z,9900
2018-01-26T09:42:16.873Z,10556
2018-01-26T09:43:16.606Z,11320
2018-01-26T09:44:16.821Z,11880
2018-01-26T09:45:16.567Z,12260
2018-01-26T09:46:16.779Z,12500
2018-01-26T09:47:16.758Z,12584
2018-01-26T09:48:16.489Z,12608
2018-01-26T09:49:16.215Z,12516
2018-01-26T09:50:16.699Z,12308
2018-01-26T09:51:16.418Z,11984
2018-01-26T09:52:17.329Z,11652
2018-01-26T09:53:16.372Z,11388
2018-01-26T09:54:16.350Z,11264
2018-01-26T09:55:16.326Z,11224
2018-01-26T09:56:16.595Z,11388
2018-01-26T09:57:16.283Z,11712
2018-01-26T09:58:16.499Z,12096
2018-01-26T09:59:16.238Z,12408
2018-01-26T10:00:16.591Z,12596
2018-01-26T10:01:16.189Z,12644
2018-01-26T10:02:16.169Z,12572
2018-01-26T10:03:16.139Z,12508
2018-01-26T10:04:16.121Z,12464
2018-01-26T10:05:16.149Z,12476
2018-01-26T10:06:16.185Z,12420
2018-01-26T10:07:16.297Z,12296
2018-01-26T10:08:16.275Z,12224
2018-01-26T10:09:16.211Z,12048
2018-01-26T10:10:16.022Z,11776
2018-01-26T10:11:15.960Z,11472
2018-01-26T10:12:15.798Z,11240
2018-01-26T10:13:15.914Z,11152
2018-01-26T10:14:15.893Z,11112
2018-01-26T10:15:16.109Z,11120
2018-01-26T10:16:16.098Z,11152
2018-01-26T10:17:15.330Z,11168
2018-01-26T10:18:16.574Z,11036
2018-01-26T10:19:15.544Z,10860
2018-01-26T10:20:16.003Z,10736
2018-01-26T10:21:16.027Z,10636
2018-01-26T10:22:15.224Z,10548
2018-01-26T10:23:15.933Z,10508
2018-01-26T10:24:15.670Z,10424
2018-01-26T10:25:15.882Z,10320
2018-01-26T10:26:15.369Z,10240
2018-01-26T10:27:15.838Z,10152
2018-01-26T10:28:15.920Z,10036
2018-01-26T10:29:15.554Z,10032
2018-01-26T10:30:15.527Z,10112
2018-01-26T10:31:15.506Z,10212
2018-01-26T10:32:15.475Z,10144
2018-01-26T10:33:15.454Z,10036
2018-01-26T10:34:15.684Z,10036
2018-01-26T10:35:15.740Z,9960
2018-01-26T10:36:15.637Z,9840
2018-01-26T10:37:16.163Z,9776
2018-01-26T10:38:16.064Z,9664
2018-01-26T10:39:15.238Z,9604
2018-01-26T10:40:15.426Z,9584
2018-01-26T10:41:15.372Z,9576
2018-01-26T10:42:15.569Z,9532
2018-01-26T10:43:15.268Z,9540
2018-01-26T10:44:15.849Z,9600
2018-01-26T10:45:14.934Z,9732
2018-01-26T10:46:15.159Z,9900
2018-01-26T10:47:15.389Z,10204
2018-01-26T10:48:15.361Z,10540
2018-01-26T10:49:15.087Z,10580
2018-01-26T10:50:15.067Z,10668
2018-01-26T10:51:15.294Z,11172
2018-01-26T10:52:15.026Z,11208
2018-01-26T10:53:15.002Z,11024
2018-01-26T10:54:15.246Z,11116
2018-01-26T10:55:14.954Z,11296
2018-01-26T10:56:15.180Z,11140
2018-01-26T10:57:15.152Z,11024
2018-01-26T10:58:14.881Z,10904
2018-01-26T10:59:15.109Z,10804
2018-01-26T11:00:15.088Z,11080
2018-01-26T11:01:14.819Z,10980
2018-01-26T11:02:15.043Z,10620
2018-01-26T11:03:15.022Z,10544
2018-01-26T11:04:14.751Z,10452
2018-01-26T11:05:14.479Z,9908
2018-01-26T11:06:14.949Z,9472
2018-01-26T11:07:14.682Z,9212
2018-01-26T11:08:14.952Z,9368
2018-01-26T11:09:14.880Z,9784
2018-01-26T11:10:14.613Z,10104
2018-01-26T11:11:14.837Z,10308
2018-01-26T11:12:14.563Z,10292
2018-01-26T11:13:14.789Z,10368
2018-01-26T11:14:14.285Z,10472
2018-01-26T11:15:14.497Z,10524
2018-01-26T11:16:14.224Z,10736
2018-01-26T11:17:14.448Z,11156
2018-01-26T11:18:14.431Z,11464
2018-01-26T11:19:14.405Z,11508
2018-01-26T11:20:14.705Z,11212
2018-01-26T11:21:14.604Z,10808
2018-01-26T11:22:14.586Z,10480
2018-01-26T11:23:14.560Z,10328
2018-01-26T11:24:14.538Z,10696
2018-01-26T11:25:14.266Z,11160
2018-01-26T11:26:14.248Z,11760
2018-01-26T11:27:14.224Z,12352
2018-01-26T11:28:14.203Z,12736
2018-01-26T11:29:14.435Z,13240
2018-01-26T11:30:14.400Z,13472
2018-01-26T11:31:14.384Z,14168
2018-01-26T11:32:14.352Z,14668
2018-01-26T11:33:13.835Z,14876
2018-01-26T11:34:14.061Z,14848
2018-01-26T11:35:14.290Z,14628
2018-01-26T11:36:14.264Z,14424
2018-01-26T11:37:13.749Z,14196
2018-01-26T11:38:14.220Z,14120
2018-01-26T11:39:13.755Z,14112
2018-01-26T11:40:14.174Z,14032
2018-01-26T11:41:13.673Z,13784
2018-01-26T11:42:13.883Z,13440
2018-01-26T11:43:13.860Z,13240
2018-01-26T11:44:14.083Z,13148
2018-01-26T11:45:14.060Z,13060
2018-01-26T11:46:13.794Z,12944
2018-01-26T11:47:14.014Z,12736
2018-01-26T11:48:13.746Z,12652
2018-01-26T11:49:13.981Z,12792
2018-01-26T11:50:13.706Z,13016
2018-01-26T11:51:13.684Z,13304
2018-01-26T11:52:13.661Z,13480
2018-01-26T11:53:13.640Z,13512
2018-01-26T11:54:13.861Z,13360
2018-01-26T11:55:13.835Z,13160
2018-01-26T11:56:13.577Z,13128
2018-01-26T11:57:13.301Z,13272
2018-01-26T11:58:13.285Z,13456
2018-01-26T11:59:13.504Z,13688
2018-01-26T12:00:13.477Z,13960
2018-01-26T12:01:13.222Z,14012
2018-01-26T12:02:13.192Z,13932
2018-01-26T12:03:13.168Z,13876
2018-01-26T12:04:13.498Z,13724
2018-01-26T12:05:13.122Z,13436
2018-01-26T12:06:13.346Z,13200
2018-01-26T12:07:13.618Z,13128
2018-01-26T12:08:13.306Z,13364
2018-01-26T12:09:13.533Z,13676
2018-01-26T12:10:13.257Z,13728
2018-01-26T12:11:12.994Z,13548
2018-01-26T12:12:13.214Z,13332
2018-01-26T12:13:13.431Z,13380
2018-01-26T12:14:13.418Z,13744
2018-01-26T12:15:13.149Z,14364
2018-01-26T12:16:13.382Z,15304
2018-01-26T12:17:13.105Z,16048
2018-01-26T12:18:13.398Z,16216
2018-01-26T12:19:13.061Z,15860
2018-01-26T12:20:12.791Z,15096
2018-01-26T12:21:13.260Z,14296
2018-01-26T12:22:12.996Z,13436
2018-01-26T12:23:12.978Z,12956
2018-01-26T12:24:13.211Z,12784
2018-01-26T12:25:13.177Z,12860
2018-01-26T12:26:12.416Z,13200
2018-01-26T12:27:13.128Z,13100
2018-01-26T12:28:12.888Z,12668
2018-01-26T12:29:12.590Z,12540
2018-01-26T12:30:12.919Z,12832
2018-01-26T12:31:13.042Z,13364
2018-01-26T12:32:13.023Z,13900
2018-01-26T12:33:12.753Z,13964
2018-01-26T12:34:12.482Z,13620
2018-01-26T12:35:12.708Z,13124
2018-01-26T12:36:12.692Z,12564
2018-01-26T12:37:12.666Z,12148
2018-01-26T12:38:12.890Z,12024
2018-01-26T12:39:12.863Z,12032
2018-01-26T12:40:12.592Z,12160
2018-01-26T12:41:12.826Z,12360
2018-01-26T12:42:12.111Z,12504
2018-01-26T12:43:12.778Z,12496
2018-01-26T12:44:12.757Z,12424
2018-01-26T12:45:12.726Z,12340
2018-01-26T12:46:12.473Z,12036
2018-01-26T12:47:12.440Z,11568
2018-01-26T12:48:12.414Z,11224
2018-01-26T12:49:12.153Z,11060
2018-01-26T12:50:12.385Z,11000
2018-01-26T12:51:12.352Z,11008
2018-01-26T12:52:12.089Z,10988
2018-01-26T12:53:12.553Z,11000
2018-01-26T12:54:12.296Z,11004
2018-01-26T12:55:12.016Z,10872
2018-01-26T12:56:11.990Z,10764
2018-01-26T12:57:12.214Z,10820
2018-01-26T12:58:12.447Z,10864
2018-01-26T12:59:12.416Z,10904
2018-01-26T13:00:12.152Z,11040
2018-01-26T13:01:12.131Z,11196
2018-01-26T13:02:12.357Z,11288
2018-01-26T13:03:11.841Z,11264
2018-01-26T13:04:12.307Z,11180
2018-01-26T13:05:12.285Z,11040
2018-01-26T13:06:13.141Z,10920
2018-01-26T13:07:12.701Z,10884
2018-01-26T13:08:12.191Z,10904
2018-01-26T13:09:12.568Z,10964
2018-01-26T13:10:12.282Z,11064
2018-01-26T13:11:12.035Z,11228
2018-01-26T13:12:13.883Z,11364
2018-01-26T13:13:11.922Z,11456
2018-01-26T13:14:11.854Z,11428
2018-01-26T13:15:11.834Z,11380
2018-01-26T13:16:12.487Z,11300
2018-01-26T13:17:12.034Z,11196
2018-01-26T13:18:11.990Z,11140
2018-01-26T13:19:12.463Z,11156
2018-01-26T13:20:13.447Z,11256
2018-01-26T13:21:12.444Z,11388
2018-01-26T13:22:11.650Z,11500
2018-01-26T13:23:11.634Z,11564
2018-01-26T13:24:11.850Z,11504
2018-01-26T13:25:11.583Z,11240
2018-01-26T13:26:11.811Z,10864
2018-01-26T13:27:11.792Z,10392
2018-01-26T13:28:12.912Z,9940
2018-01-26T13:29:13.586Z,9620
2018-01-26T13:30:14.405Z,9424
2018-01-26T13:31:14.389Z,9204
2018-01-26T13:32:13.971Z,8952
2018-01-26T13:33:13.240Z,8724
2018-01-26T13:34:14.125Z,8636
2018-01-26T13:35:14.081Z,8744
2018-01-26T13:36:12.702Z,8988
2018-01-26T13:37:12.621Z,9192
2018-01-26T13:38:12.436Z,9360
2018-01-26T13:39:11.547Z,9568
2018-01-26T13:40:14.074Z,9688
2018-01-26T13:41:11.427Z,9728
2018-01-26T13:42:11.448Z,9740
2018-01-26T13:43:11.189Z,9620
2018-01-26T13:44:11.161Z,9084
2018-01-26T13:45:11.133Z,8384
2018-01-26T13:46:11.354Z,7740
2018-01-26T13:47:11.340Z,7360
2018-01-26T13:48:11.071Z,7432
2018-01-26T13:49:10.800Z,7412
2018-01-26T13:50:11.266Z,7464
2018-01-26T13:51:10.999Z,8072
2018-01-26T13:52:10.970Z,7956
2018-01-26T13:53:10.950Z,7724
2018-01-26T13:54:11.178Z,7564